Time;durP1;ratioP1;P1;durP2;ratioP2;P2;SDS_P1;SDS_P2;PMS_P1;PMS_P2;Temp;Humidity;BMP_temperature;BMP_pressure;BME280_temperature;BME280_humidity;BME280_pressure;Samples;Min_cycle;Max_cycle;Signal;HPM_P1;HPM_P2
2021/12/04 07:33:23;;;;;;;95.73;43.40;;;2.20;99.90;;;;;;5111408;27;20546;-62
2021/12/04 07:35:50;;;;;;;113.00;49.60;;;2.50;99.90;;;;;;5111097;28;20028;-59
2021/12/04 07:38:16;;;;;;;90.20;42.65;;;2.90;99.90;;;;;;5111027;28;20473;-60
2021/12/04 07:40:43;;;;;;;78.75;37.17;;;3.40;99.90;;;;;;5111318;28;20065;-58
2021/12/04 07:43:09;;;;;;;90.88;45.55;;;4.00;99.90;;;;;;5111022;28;20106;-61
2021/12/04 07:45:35;;;;;;;69.85;37.85;;;5.40;99.90;;;;;;5110892;28;20056;-59
2021/12/04 07:48:02;;;;;;;89.03;44.13;;;6.70;99.90;;;;;;5110921;28;20016;-60
2021/12/04 07:50:28;;;;;;;67.20;37.45;;;7.70;99.20;;;;;;5110899;28;20024;-58
2021/12/04 07:52:55;;;;;;;59.22;33.67;;;8.40;96.00;;;;;;5110662;28;20036;-56
2021/12/04 07:55:21;;;;;;;60.33;32.42;;;9.10;93.80;;;;;;5110751;28;20072;-56
2021/12/04 07:57:47;;;;;;;73.90;38.40;;;9.70;90.80;;;;;;5110718;28;20020;-59
2021/12/04 08:00:15;;;;;;;78.53;39.85;;;9.70;88.50;;;;;;5110681;28;20035;-55
2021/12/04 08:02:41;;;;;;;67.03;38.90;;;9.40;88.80;;;;;;5110931;28;20028;-53
2021/12/04 08:05:08;;;;;;;70.50;38.75;;;9.70;90.20;;;;;;5110270;28;20537;-59
2021/12/04 08:07:35;;;;;;;67.35;36.42;;;10.10;88.00;;;;;;5110737;28;20028;-58
2021/12/04 08:10:00;;;;;;;58.22;33.83;;;10.50;85.90;;;;;;5110516;28;20016;-60
2021/12/04 08:12:26;;;;;;;57.75;32.95;;;10.50;84.00;;;;;;5110280;28;20038;-64
2021/12/04 08:14:53;;;;;;;54.28;33.28;;;10.10;84.90;;;;;;5110453;28;20016;-63
2021/12/04 08:17:20;;;;;;;54.95;31.45;;;9.70;86.80;;;;;;5110161;28;20453;-59
2021/12/04 08:19:46;;;;;;;61.80;34.83;;;9.60;87.90;;;;;;5110362;28;20027;-61
2021/12/04 08:22:12;;;;;;;72.85;40.50;;;9.30;86.40;;;;;;5110378;28;20024;-62
2021/12/04 08:24:37;;;;;;;65.30;38.33;;;8.90;86.80;;;;;;5110119;28;20417;-58
2021/12/04 08:27:03;;;;;;;64.90;35.75;;;8.60;88.70;;;;;;5110167;28;20077;-60
2021/12/04 08:29:29;;;;;;;73.75;41.92;;;8.50;90.30;;;;;;5110455;28;20408;-57
2021/12/04 08:31:55;;;;;;;64.50;37.08;;;8.30;90.70;;;;;;5118510;28;20039;-54
2021/12/04 08:34:23;;;;;;;93.95;51.45;;;8.10;91.40;;;;;;5130377;28;20061;-55
2021/12/04 08:36:51;;;;;;;65.35;37.53;;;8.40;90.90;;;;;;5130822;28;20474;-59
2021/12/04 08:39:17;;;;;;;65.50;38.63;;;8.20;91.10;;;;;;5130659;28;20031;-57
2021/12/04 08:41:43;;;;;;;87.93;45.55;;;8.20;91.70;;;;;;5130322;28;20023;-59
2021/12/04 08:44:09;;;;;;;108.10;56.78;;;8.10;91.40;;;;;;5119987;28;20022;-58
2021/12/04 08:46:37;;;;;;;87.95;49.85;;;8.10;91.60;;;;;;5116566;28;20023;-56
2021/12/04 08:49:04;;;;;;;98.55;50.25;;;8.60;90.80;;;;;;5116708;28;20031;-60
2021/12/04 08:51:30;;;;;;;83.45;46.50;;;9.00;90.00;;;;;;5116685;28;20024;-58
2021/12/04 08:53:56;;;;;;;79.55;42.58;;;9.10;90.00;;;;;;5116392;28;20049;-59
2021/12/04 08:56:22;;;;;;;69.75;40.20;;;8.90;90.50;;;;;;5116716;28;20411;-60
2021/12/04 08:58:48;;;;;;;72.93;39.83;;;8.80;89.10;;;;;;5116630;28;20031;-61
2021/12/04 09:01:26;;;;;;;65.75;37.28;;;9.00;91.10;;;;;;5116369;28;20030;-59
2021/12/04 09:03:59;;;;;;;57.33;35.78;;;9.00;88.00;;;;;;5116249;28;20027;-58
2021/12/04 09:06:26;;;;;;;57.85;34.63;;;8.90;87.70;;;;;;5116558;28;20043;-56
2021/12/04 09:08:52;;;;;;;61.65;34.13;;;8.50;88.80;;;;;;5116009;28;20027;-57
2021/12/04 09:11:23;;;;;;;59.63;34.15;;;8.50;89.30;;;;;;5116133;28;20024;-56
2021/12/04 09:13:50;;;;;;;55.70;32.95;;;8.60;90.30;;;;;;5116148;28;20095;-61
2021/12/04 09:16:17;;;;;;;53.60;31.42;;;8.90;90.40;;;;;;5115868;28;20023;-56
2021/12/04 09:18:43;;;;;;;63.08;36.63;;;9.00;88.70;;;;;;5116178;28;20057;-58
2021/12/04 09:21:10;;;;;;;56.63;32.55;;;9.10;87.20;;;;;;5115926;28;20023;-60
2021/12/04 09:23:39;;;;;;;49.45;29.52;;;9.00;89.30;;;;;;5116119;28;20353;-56
2021/12/04 09:26:09;;;;;;;51.63;28.73;;;9.30;88.10;;;;;;5115862;28;20465;-61
2021/12/04 10:23:12;;;;;;;103.10;61.60;;;11.50;83.70;;;;;;5091044;28;20055;-55
2021/12/04 10:33:58;;;;;;;97.60;55.58;;;11.40;84.20;;;;;;5114832;28;20039;-55
2021/12/04 10:36:32;;;;;;;91.60;54.20;;;11.40;85.40;;;;;;5114753;28;20066;-56
2021/12/04 10:38:59;;;;;;;93.85;55.75;;;11.60;84.30;;;;;;5114470;28;20397;-57
2021/12/04 10:41:45;;;;;;;88.13;53.47;;;11.70;84.10;;;;;;5114320;28;20381;-62
2021/12/04 10:44:15;;;;;;;86.80;51.25;;;11.90;83.00;;;;;;5114321;28;20528;-55
2021/12/04 10:47:04;;;;;;;79.35;50.25;;;12.00;83.50;;;;;;5114231;28;20066;-59
2021/12/04 10:49:53;;;;;;;80.43;51.33;;;12.00;84.30;;;;;;5114384;28;20080;-59
2021/12/04 10:52:24;;;;;;;96.32;55.72;;;12.10;82.60;;;;;;5114424;28;20092;-52
2021/12/04 10:54:54;;;;;;;86.45;54.15;;;12.20;82.90;;;;;;5114300;28;20046;-59
2021/12/04 11:00:21;;;;;;;99.15;59.78;;;12.10;82.90;;;;;;5114219;28;20069;-60
2021/12/04 11:02:52;;;;;;;125.38;74.18;;;12.10;83.20;;;;;;5114305;28;20036;-56
2021/12/04 11:43:15;;;;;;;78.22;46.78;;;13.10;83.00;;;;;;5113910;28;20165;-57
2021/12/04 11:46:00;;;;;;;83.97;49.65;;;13.00;82.70;;;;;;5113780;28;20377;-59
2021/12/04 11:48:33;;;;;;;81.85;51.00;;;13.10;82.30;;;;;;5113811;28;20385;-55
2021/12/04 11:51:00;;;;;;;74.65;47.97;;;13.40;81.80;;;;;;5113474;28;20049;-61
2021/12/04 11:53:27;;;;;;;83.40;51.50;;;13.10;81.60;;;;;;5113784;28;20027;-58
2021/12/04 11:55:53;;;;;;;77.35;50.60;;;13.30;84.60;;;;;;5113388;28;20024;-58
2021/12/04 11:58:43;;;;;;;77.72;50.33;;;13.30;82.40;;;;;;5113662;28;20189;-60
2021/12/04 12:01:21;;;;;;;85.75;51.75;;;13.50;80.50;;;;;;5113384;28;20383;-60
2021/12/04 12:03:55;;;;;;;96.80;53.67;;;13.40;82.20;;;;;;5113573;28;20024;-58
2021/12/04 12:06:32;;;;;;;;;;;13.30;81.00;;;;;;5113829;28;20023;-61
2021/12/04 12:09:06;;;;;;;86.05;54.15;;;13.00;81.40;;;;;;5113428;28;19910;-57
2021/12/04 12:11:33;;;;;;;73.30;47.40;;;13.00;81.30;;;;;;5113244;28;20095;-63
2021/12/04 12:14:03;;;;;;;64.40;44.25;;;13.40;83.60;;;;;;5113290;28;20473;-58
2021/12/04 12:16:35;;;;;;;65.50;40.47;;;13.50;82.20;;;;;;5113599;28;20427;-56
2021/12/04 12:19:10;;;;;;;62.00;40.47;;;13.40;82.10;;;;;;5115239;28;20102;-60
2021/12/04 12:21:46;;;;;;;63.08;42.08;;;13.30;81.10;;;;;;5117032;28;20469;-59
2021/12/04 12:38:16;;;;;;;55.35;35.13;;;13.70;80.00;;;;;;5117018;28;20069;-58
2021/12/04 12:40:56;;;;;;;52.80;35.95;;;13.60;79.60;;;;;;5116711;28;20028;-55
2021/12/04 12:43:22;;;;;;;53.80;36.97;;;13.70;79.80;;;;;;5116526;28;20061;-60
2021/12/04 12:45:54;;;;;;;66.07;40.75;;;13.70;79.50;;;;;;5116894;28;20024;-60
2021/12/04 12:48:20;;;;;;;66.32;42.75;;;13.90;78.90;;;;;;5116547;28;20023;-59
2021/12/04 12:50:47;;;;;;;75.15;44.42;;;13.50;79.80;;;;;;5116492;28;20040;-60
2021/12/04 12:53:30;;;;;;;66.35;41.28;;;13.50;81.10;;;;;;5116397;28;20023;-61
2021/12/04 12:56:12;;;;;;;60.47;39.03;;;13.50;80.30;;;;;;5116455;28;20536;-59
2021/12/04 12:59:06;;;;;;;89.68;50.92;;;13.80;79.50;;;;;;5116444;28;20480;-58
2021/12/04 13:13:49;;;;;;;69.07;43.70;;;13.60;78.80;;;;;;5088235;28;20046;-56
2021/12/04 13:16:28;;;;;;;57.53;37.92;;;13.60;79.30;;;;;;5116059;28;20027;-57
2021/12/04 13:19:00;;;;;;;50.10;32.55;;;13.90;78.00;;;;;;5116066;28;20111;-54
2021/12/04 13:21:27;;;;;;;47.08;31.00;;;14.10;77.60;;;;;;5116152;28;20046;-57
2021/12/04 13:23:55;;;;;;;45.85;31.15;;;14.20;77.40;;;;;;5115830;28;20062;-55
2021/12/04 13:26:30;;;;;;;47.45;30.27;;;14.20;77.40;;;;;;5115868;28;20083;-55
2021/12/04 13:28:58;;;;;;;107.95;66.30;;;14.30;77.30;;;;;;5116025;28;20024;-57
2021/12/04 13:31:24;;;;;;;75.72;49.05;;;13.90;78.00;;;;;;5115605;28;20052;-60
2021/12/04 13:33:51;;;;;;;157.02;88.63;;;13.60;78.90;;;;;;5115878;28;20095;-54
2021/12/04 13:36:20;;;;;;;102.80;61.90;;;13.30;79.70;;;;;;5115861;28;20023;-58
2021/12/04 13:38:50;;;;;;;88.30;52.05;;;13.00;81.00;;;;;;5115574;28;20012;-58
2021/12/04 13:41:16;;;;;;;58.22;37.70;;;13.00;80.60;;;;;;5115469;28;20400;-54
2021/12/04 13:43:49;;;;;;;61.10;38.95;;;13.10;80.10;;;;;;5115621;28;20022;-55
2021/12/04 13:46:14;;;;;;;53.17;31.30;;;13.00;81.20;;;;;;5115655;28;20015;-59
2021/12/04 13:48:40;;;;;;;55.65;37.67;;;13.10;81.20;;;;;;5115506;28;20020;-55
2021/12/04 13:51:06;;;;;;;87.28;53.78;;;13.00;80.70;;;;;;5115230;28;20031;-61
2021/12/04 13:53:35;;;;;;;102.80;63.38;;;12.60;81.30;;;;;;5115411;28;20026;-58
2021/12/04 13:56:06;;;;;;;97.18;60.38;;;11.50;84.50;;;;;;5115593;28;20020;-57
2021/12/04 13:58:32;;;;;;;118.03;73.53;;;10.50;88.80;;;;;;5115348;28;20028;-62
2021/12/04 14:01:03;;;;;;;110.40;66.68;;;9.50;92.60;;;;;;5115234;28;20019;-57
2021/12/04 14:03:31;;;;;;;100.78;60.72;;;9.10;95.00;;;;;;5115134;28;20467;-53
2021/12/04 14:05:57;;;;;;;125.05;71.57;;;8.80;96.50;;;;;;5115121;28;20019;-53
2021/12/04 14:08:23;;;;;;;168.82;90.22;;;8.60;98.50;;;;;;5115183;28;20483;-61
2021/12/04 14:10:50;;;;;;;168.35;92.80;;;8.40;99.50;;;;;;5115238;28;20023;-63
2021/12/04 14:13:20;;;;;;;190.18;105.35;;;8.30;99.90;;;;;;5115139;28;20399;-58
2021/12/04 14:15:47;;;;;;;166.55;95.10;;;8.20;99.90;;;;;;5115031;28;20019;-59
2021/12/04 14:18:17;;;;;;;151.57;88.22;;;8.10;99.90;;;;;;5115145;28;20027;-60
2021/12/04 14:20:46;;;;;;;167.55;93.75;;;7.90;99.90;;;;;;5114681;28;20258;-55
2021/12/04 14:23:12;;;;;;;153.77;89.97;;;7.80;99.90;;;;;;5114784;28;20031;-54
2021/12/04 14:25:44;;;;;;;149.15;88.72;;;7.60;99.90;;;;;;5114918;28;20020;-52
2021/12/04 14:28:13;;;;;;;168.25;101.43;;;7.30;99.90;;;;;;5115030;28;20032;-57
2021/12/04 14:30:43;;;;;;;144.35;88.28;;;7.20;99.90;;;;;;5114942;28;20031;-55
2021/12/04 14:33:10;;;;;;;123.22;72.55;;;7.00;99.90;;;;;;5114302;28;20126;-60
2021/12/04 14:35:42;;;;;;;110.80;64.32;;;6.80;99.90;;;;;;5114383;28;20027;-60
2021/12/04 14:38:11;;;;;;;121.45;67.55;;;6.60;99.90;;;;;;5114435;28;20047;-56
2021/12/04 14:40:48;;;;;;;145.95;85.65;;;6.40;99.90;;;;;;5114479;28;20023;-59
2021/12/04 14:43:17;;;;;;;141.55;87.35;;;6.30;99.90;;;;;;5114346;28;20036;-58
2021/12/04 14:45:48;;;;;;;125.22;76.75;;;6.30;99.90;;;;;;5114653;28;20135;-56
2021/12/04 14:48:29;;;;;;;115.65;70.40;;;6.30;99.90;;;;;;5114557;28;20031;-62
2021/12/04 14:51:04;;;;;;;135.20;82.53;;;6.30;99.90;;;;;;5114354;28;20033;-62
2021/12/04 14:53:33;;;;;;;147.18;87.13;;;6.20;99.90;;;;;;5114239;28;20031;-58
2021/12/04 14:55:59;;;;;;;124.65;71.28;;;6.10;99.90;;;;;;5114118;28;20095;-54
2021/12/04 14:58:27;;;;;;;102.85;57.30;;;6.10;99.90;;;;;;5114171;28;20042;-54
2021/12/04 15:01:15;;;;;;;153.55;82.78;;;6.10;99.90;;;;;;5114447;28;20028;-54
2021/12/04 15:03:50;;;;;;;225.07;123.50;;;6.10;99.90;;;;;;5114372;28;20031;-55
2021/12/04 15:06:17;;;;;;;204.38;112.97;;;5.90;99.90;;;;;;5113892;28;20407;-56
2021/12/04 15:08:47;;;;;;;219.95;118.30;;;5.90;99.90;;;;;;5113897;28;20028;-57
2021/12/04 15:11:19;;;;;;;194.50;112.07;;;5.70;99.90;;;;;;5114077;28;20542;-59
2021/12/04 15:13:53;;;;;;;178.18;104.10;;;5.70;99.90;;;;;;5113746;28;20380;-60
2021/12/04 15:16:29;;;;;;;180.85;101.53;;;5.60;99.90;;;;;;5113667;28;20541;-58
2021/12/04 15:19:38;;;;;;;145.02;81.63;;;5.50;99.90;;;;;;5113905;28;20103;-56
2021/12/04 15:22:04;;;;;;;148.38;77.28;;;5.60;99.90;;;;;;5113751;28;20038;-61
2021/12/04 15:24:33;;;;;;;151.77;82.85;;;5.70;99.90;;;;;;5113699;28;20020;-57
2021/12/04 15:27:04;;;;;;;185.77;92.75;;;5.80;99.90;;;;;;5113772;28;20070;-55
2021/12/04 15:29:32;;;;;;;360.52;148.35;;;5.90;99.90;;;;;;5114031;28;20016;-60
2021/12/04 15:32:00;;;;;;;351.17;168.05;;;6.10;99.90;;;;;;5113244;28;20493;-54
2021/12/04 15:34:58;;;;;;;202.18;107.30;;;6.10;99.90;;;;;;5113613;28;20043;-61
2021/12/04 15:37:26;;;;;;;221.75;116.00;;;5.70;99.90;;;;;;5113962;28;20106;-57
2021/12/04 15:39:53;;;;;;;215.75;110.38;;;5.40;99.90;;;;;;5113605;28;20031;-49
2021/12/04 15:47:34;;;;;;;273.60;118.43;;;5.50;99.90;;;;;;5113409;28;20067;-50
2021/12/04 15:53:05;;;;;;;223.65;102.82;;;5.90;99.90;;;;;;5113732;28;20103;-57
2021/12/04 15:55:47;;;;;;;264.33;122.57;;;6.10;99.90;;;;;;5117657;28;20023;-61
2021/12/04 15:58:15;;;;;;;212.63;116.07;;;6.30;99.90;;;;;;5117618;28;20019;-57
2021/12/04 16:00:47;;;;;;;169.63;92.82;;;6.30;99.90;;;;;;5117513;28;20457;-60
2021/12/04 16:03:16;;;;;;;329.70;160.05;;;6.10;99.90;;;;;;5117332;28;20028;-63
2021/12/04 16:06:09;;;;;;;371.88;183.57;;;5.90;99.90;;;;;;5117424;28;20027;-59
2021/12/04 16:08:35;;;;;;;304.42;153.85;;;5.80;99.90;;;;;;5117353;28;20028;-54
2021/12/04 16:11:08;;;;;;;281.13;140.85;;;5.60;99.90;;;;;;5117311;28;20024;-57
2021/12/04 16:13:35;;;;;;;322.53;153.67;;;5.50;99.90;;;;;;5117449;28;20028;-54
2021/12/04 16:16:17;;;;;;;345.05;166.82;;;5.60;99.90;;;;;;5117462;28;20046;-57
2021/12/04 16:18:44;;;;;;;294.75;148.32;;;5.60;99.90;;;;;;5117249;28;20020;-56
2021/12/04 16:21:11;;;;;;;274.70;141.48;;;5.70;99.90;;;;;;5117060;28;20094;-53
2021/12/04 16:23:38;;;;;;;263.38;134.60;;;5.70;99.90;;;;;;5098708;28;20464;-56
2021/12/04 16:26:05;;;;;;;293.63;147.18;;;5.80;99.90;;;;;;5117098;28;20062;-58
2021/12/04 16:28:55;;;;;;;223.25;116.57;;;5.90;99.90;;;;;;5117029;28;20022;-60
2021/12/04 16:38:47;;;;;;;180.90;94.13;;;6.20;99.90;;;;;;5116806;28;20019;-55
2021/12/04 16:41:14;;;;;;;232.05;118.57;;;6.20;99.90;;;;;;5116734;28;20030;-58
2021/12/04 16:43:45;;;;;;;232.73;113.60;;;6.20;99.90;;;;;;5117000;28;20032;-57
2021/12/04 16:46:15;;;;;;;247.85;120.13;;;6.20;99.90;;;;;;5116774;28;20031;-54
2021/12/04 16:48:49;;;;;;;343.42;146.40;;;6.10;99.90;;;;;;5116569;28;20041;-59
2021/12/04 16:59:14;;;;;;;298.17;136.95;;;6.10;99.90;;;;;;5116340;28;20027;-58
2021/12/04 17:01:46;;;;;;;290.73;134.05;;;5.90;99.90;;;;;;5116125;28;20035;-58
2021/12/04 17:04:13;;;;;;;273.10;129.95;;;5.80;99.90;;;;;;5116020;28;20019;-57
2021/12/04 17:06:43;;;;;;;289.15;139.23;;;5.90;99.90;;;;;;5116261;28;20068;-58
2021/12/04 17:09:09;;;;;;;217.85;110.22;;;6.00;99.90;;;;;;5116251;28;20020;-58
2021/12/04 17:11:37;;;;;;;223.38;107.80;;;6.00;99.90;;;;;;5116143;28;20412;-61
2021/12/04 17:14:03;;;;;;;207.88;104.80;;;6.00;99.90;;;;;;5116069;28;20150;-60
2021/12/04 17:16:29;;;;;;;195.38;103.38;;;6.10;99.90;;;;;;5115908;28;20110;-62
2021/12/04 17:19:07;;;;;;;196.13;98.72;;;6.10;99.90;;;;;;5115996;28;20532;-59
2021/12/04 17:21:36;;;;;;;194.70;100.60;;;6.20;99.90;;;;;;5097721;28;20024;-55
2021/12/04 17:24:04;;;;;;;181.40;96.22;;;6.20;99.90;;;;;;5115893;28;20038;-55
2021/12/04 17:26:30;;;;;;;174.27;93.32;;;6.10;99.90;;;;;;5115850;28;20031;-57
2021/12/04 17:28:56;;;;;;;147.40;79.13;;;6.10;99.90;;;;;;5115719;28;20505;-64
2021/12/04 17:31:23;;;;;;;142.32;75.25;;;6.10;99.90;;;;;;5115521;28;20040;-58
2021/12/04 17:33:51;;;;;;;148.68;76.95;;;6.10;99.90;;;;;;5115767;28;20540;-56
2021/12/04 17:36:18;;;;;;;141.88;74.80;;;6.20;99.90;;;;;;5115961;28;20031;-59
2021/12/04 17:38:45;;;;;;;176.70;93.30;;;6.20;99.90;;;;;;5115953;28;20027;-58
2021/12/04 17:41:17;;;;;;;178.65;97.05;;;6.20;99.90;;;;;;5115888;28;20122;-57
2021/12/04 17:43:43;;;;;;;177.95;91.70;;;6.10;99.90;;;;;;5115516;28;20106;-60
2021/12/04 17:46:11;;;;;;;312.63;141.70;;;6.10;99.90;;;;;;5115466;28;20030;-58
2021/12/04 17:48:38;;;;;;;276.45;128.80;;;6.00;99.90;;;;;;5115627;28;20027;-60
2021/12/04 17:51:04;;;;;;;360.17;170.63;;;5.90;99.90;;;;;;5115356;28;20496;-58
2021/12/04 17:53:32;;;;;;;441.67;227.90;;;5.70;99.90;;;;;;5115417;28;20031;-61
2021/12/04 17:55:58;;;;;;;403.63;204.25;;;5.50;99.90;;;;;;5115495;28;20054;-62
2021/12/04 17:58:26;;;;;;;385.10;181.32;;;5.30;99.90;;;;;;5115104;28;20024;-60
2021/12/04 18:00:56;;;;;;;333.98;162.77;;;5.20;99.90;;;;;;5115310;28;20081;-57
2021/12/04 18:03:25;;;;;;;333.52;154.40;;;5.40;99.90;;;;;;5115072;28;20027;-54
2021/12/04 18:05:54;;;;;;;393.33;177.20;;;5.50;99.90;;;;;;5115272;28;20047;-58
2021/12/04 18:08:22;;;;;;;350.63;156.70;;;5.60;99.90;;;;;;5115361;28;20027;-61
2021/12/04 18:10:53;;;;;;;319.27;140.63;;;5.70;99.90;;;;;;5115196;28;20030;-58
2021/12/04 18:13:21;;;;;;;254.23;121.05;;;5.70;99.90;;;;;;5114768;28;20038;-61
2021/12/04 18:15:54;;;;;;;366.90;159.88;;;5.80;99.90;;;;;;5114306;28;20020;-58
2021/12/04 18:18:22;;;;;;;274.73;124.30;;;5.80;99.90;;;;;;5114808;28;20499;-55
2021/12/04 18:20:48;;;;;;;308.83;137.68;;;5.80;99.90;;;;;;5114941;28;20107;-61
2021/12/04 18:23:15;;;;;;;273.33;122.28;;;5.80;99.90;;;;;;5114731;28;20031;-59
2021/12/04 18:25:42;;;;;;;337.75;153.27;;;5.80;99.90;;;;;;5114866;28;20028;-62
2021/12/04 18:28:09;;;;;;;249.27;123.90;;;5.90;99.90;;;;;;5114830;28;20062;-57
2021/12/04 18:30:36;;;;;;;229.15;114.80;;;5.80;99.90;;;;;;5114701;28;20508;-57
2021/12/04 18:33:03;;;;;;;227.82;115.55;;;5.70;99.90;;;;;;5114355;28;20084;-59
2021/12/04 18:35:34;;;;;;;205.18;101.15;;;5.70;99.90;;;;;;5114610;28;20031;-61
2021/12/04 18:38:00;;;;;;;208.57;103.88;;;5.60;99.90;;;;;;5114727;28;20020;-58
2021/12/04 18:40:28;;;;;;;219.00;109.47;;;5.60;99.90;;;;;;5114479;28;20023;-63
2021/12/04 18:42:55;;;;;;;164.20;84.30;;;5.60;99.90;;;;;;5114318;28;20038;-61
2021/12/04 18:45:22;;;;;;;225.10;110.30;;;5.60;99.90;;;;;;5114275;28;20035;-58
2021/12/04 18:47:50;;;;;;;210.95;110.65;;;5.60;99.90;;;;;;5114396;28;20023;-55
2021/12/04 18:50:18;;;;;;;178.27;93.68;;;5.50;99.90;;;;;;5114208;28;20020;-57
2021/12/04 18:52:45;;;;;;;180.88;93.18;;;5.50;99.90;;;;;;5114265;28;20111;-64
2021/12/04 18:55:12;;;;;;;231.25;114.18;;;5.60;99.90;;;;;;5114176;28;20509;-53
2021/12/04 18:57:38;;;;;;;173.63;91.55;;;5.60;99.90;;;;;;5114048;28;20059;-58
2021/12/04 19:00:11;;;;;;;164.48;86.40;;;5.60;99.90;;;;;;5114166;28;20077;-60
2021/12/04 19:02:38;;;;;;;164.95;88.93;;;5.60;99.90;;;;;;5114062;28;20034;-57
2021/12/04 19:05:04;;;;;;;185.48;94.47;;;5.70;99.90;;;;;;5114131;28;20045;-59
2021/12/04 19:07:31;;;;;;;214.75;109.32;;;5.70;99.90;;;;;;5114154;28;20397;-58
2021/12/04 19:09:56;;;;;;;193.20;95.43;;;5.80;99.90;;;;;;5114083;28;20103;-59
2021/12/04 19:12:23;;;;;;;343.95;171.13;;;5.70;99.90;;;;;;5113766;28;20358;-54
2021/12/04 19:14:51;;;;;;;271.23;136.07;;;5.70;99.90;;;;;;5114151;28;20054;-60
2021/12/04 19:17:16;;;;;;;321.23;164.43;;;5.50;99.90;;;;;;5113955;28;20024;-59
2021/12/04 19:19:43;;;;;;;341.27;174.25;;;5.50;99.90;;;;;;5114113;28;20088;-57
2021/12/04 19:22:11;;;;;;;264.52;138.40;;;5.30;99.90;;;;;;5113778;28;20385;-59
2021/12/04 19:24:37;;;;;;;255.27;134.00;;;5.20;99.90;;;;;;5113526;28;20020;-63
2021/12/04 19:27:04;;;;;;;262.23;139.60;;;5.30;99.90;;;;;;5113688;28;20047;-59
2021/12/04 19:29:39;;;;;;;215.55;115.07;;;5.40;99.90;;;;;;5113786;28;20496;-64
2021/12/04 19:32:14;;;;;;;223.85;115.35;;;5.40;99.90;;;;;;5113477;28;20055;-57
2021/12/04 19:51:09;;;;;;;457.63;225.20;;;5.20;99.90;;;;;;5113529;28;20020;-60
2021/12/04 19:56:46;;;;;;;303.60;154.52;;;5.20;99.90;;;;;;5113411;28;20106;-61
2021/12/04 19:59:18;;;;;;;292.92;138.18;;;5.20;99.90;;;;;;5113377;28;20031;-62
2021/12/04 20:04:59;;;;;;;270.92;135.63;;;5.30;99.90;;;;;;5113362;28;20391;-58
2021/12/04 20:13:32;;;;;;;183.73;94.22;;;4.70;99.90;;;;;;5113271;28;20047;-59
2021/12/04 20:15:51;;;;;;;182.48;92.25;;;4.40;99.90;;;;;;5113007;28;20039;-58
2021/12/04 20:18:17;;;;;;;187.20;95.28;;;4.60;99.90;;;;;;5113804;28;20032;-62
2021/12/04 20:20:50;;;;;;;203.23;97.45;;;4.70;99.90;;;;;;5113348;28;20028;-55
2021/12/04 20:23:20;;;;;;;246.18;119.18;;;4.70;99.90;;;;;;5113003;28;20031;-63
2021/12/04 20:25:50;;;;;;;269.70;135.65;;;4.80;99.90;;;;;;5113238;28;20023;-54
2021/12/04 20:28:21;;;;;;;285.45;139.93;;;4.70;99.90;;;;;;5113231;28;20026;-58
2021/12/04 20:31:03;;;;;;;213.98;110.40;;;4.60;99.90;;;;;;5113094;28;20026;-58
2021/12/04 20:33:39;;;;;;;290.73;139.75;;;4.60;99.90;;;;;;5112885;28;20044;-60
2021/12/04 21:51:26;;;;;;;126.25;60.65;;;4.50;99.90;;;;;;5115730;28;20037;-53
2021/12/04 21:53:52;;;;;;;162.07;77.60;;;4.60;99.90;;;;;;5115295;28;20024;-60
2021/12/04 21:56:31;;;;;;;165.27;80.60;;;4.60;99.90;;;;;;5115366;28;20023;-56
2021/12/04 22:10:03;;;;;;;231.57;111.70;;;4.40;99.90;;;;;;5115413;28;20088;-53
2021/12/04 22:12:45;;;;;;;224.02;110.28;;;4.30;99.90;;;;;;5115105;28;20072;-58
2021/12/04 22:26:16;;;;;;;;;;;4.30;99.90;;;;;;5115327;28;20030;-59
2021/12/04 22:58:43;;;;;;;102.43;54.50;;;4.30;99.90;;;;;;5114386;28;20034;-60
2021/12/04 23:01:16;;;;;;;99.40;49.28;;;4.20;99.90;;;;;;5114185;28;20024;-56
2021/12/04 23:14:38;;;;;;;144.95;70.90;;;4.40;99.90;;;;;;5114258;28;20118;-56
2021/12/04 23:49:36;;;;;;;171.55;83.53;;;4.80;99.90;;;;;;5113555;28;20095;-58
